Terminal Aerodrome Forecast
Issued by NWS

Home | Current Version | Previous Version | Graphics & Text | Print | Product List | Glossary On
Versions: 1 2 3 4 5 6 7 8 9 10 11 12 13 14 15 16
000
FTUS41 KCLE 142200 AAB
TAFFDY
TAF AMD
KFDY 142211Z 1422/1518 28010G20KT P6SM BKN025 OVC040
     FM150200 35015G25KT 4SM -RA BR SCT006 OVC015
     FM150500 33015G25KT 2SM -SN OVC006
     FM151300 33015G25KT P6SM SCT006 OVC015=

USA.gov is the U.S. government's official web portal to all federal, state and local government web resources and services.